sensor_id;sensor_type;location;lat;lon;timestamp;temperature;humidity
51619;DHT22;38518;53.164;5.430;2023-10-09T00:00:24;15.40;99.90
51619;DHT22;38518;53.164;5.430;2023-10-09T00:03:05;15.40;99.90
51619;DHT22;38518;53.164;5.430;2023-10-09T00:05:32;15.40;99.90
51619;DHT22;38518;53.164;5.430;2023-10-09T00:08:11;15.50;99.90
51619;DHT22;38518;53.164;5.430;2023-10-09T00:10:41;15.40;99.90
51619;DHT22;38518;53.164;5.430;2023-10-09T00:13:26;15.40;99.90
51619;DHT22;38518;53.164;5.430;2023-10-09T00:15:55;15.50;99.90
51619;DHT22;38518;53.164;5.430;2023-10-09T00:18:26;15.50;99.90
51619;DHT22;38518;53.164;5.430;2023-10-09T00:20:58;15.50;99.90
51619;DHT22;38518;53.164;5.430;2023-10-09T00:23:36;15.50;99.90
51619;DHT22;38518;53.164;5.430;2023-10-09T00:26:02;15.50;99.90
51619;DHT22;38518;53.164;5.430;2023-10-09T00:28:36;15.50;99.90
51619;DHT22;38518;53.164;5.430;2023-10-09T00:31:06;15.50;99.90
51619;DHT22;38518;53.164;5.430;2023-10-09T00:33:40;15.50;99.90
51619;DHT22;38518;53.164;5.430;2023-10-09T00:36:07;15.50;99.90
51619;DHT22;38518;53.164;5.430;2023-10-09T00:38:37;15.50;99.90
51619;DHT22;38518;53.164;5.430;2023-10-09T00:41:10;15.50;99.90
51619;DHT22;38518;53.164;5.430;2023-10-09T00:43:37;15.60;99.90
51619;DHT22;38518;53.164;5.430;2023-10-09T00:46:05;15.60;99.90
51619;DHT22;38518;53.164;5.430;2023-10-09T00:48:54;15.60;99.90
51619;DHT22;38518;53.164;5.430;2023-10-09T00:51:20;15.70;99.90
51619;DHT22;38518;53.164;5.430;2023-10-09T00:53:55;15.70;99.90
51619;DHT22;38518;53.164;5.430;2023-10-09T00:56:23;15.70;99.90
51619;DHT22;38518;53.164;5.430;2023-10-09T00:58:57;15.70;99.90
51619;DHT22;38518;53.164;5.430;2023-10-09T01:01:40;15.70;99.90
51619;DHT22;38518;53.164;5.430;2023-10-09T01:04:08;15.80;99.90
51619;DHT22;38518;53.164;5.430;2023-10-09T01:06:42;15.80;99.90
51619;DHT22;38518;53.164;5.430;2023-10-09T01:09:13;15.70;99.90
51619;DHT22;38518;53.164;5.430;2023-10-09T01:11:44;15.80;99.90
51619;DHT22;38518;53.164;5.430;2023-10-09T01:14:15;15.80;99.90
51619;DHT22;38518;53.164;5.430;2023-10-09T01:16:41;15.80;99.90
51619;DHT22;38518;53.164;5.430;2023-10-09T01:19:07;15.80;99.90
51619;DHT22;38518;53.164;5.430;2023-10-09T01:21:46;15.80;99.90
51619;DHT22;38518;53.164;5.430;2023-10-09T01:24:11;15.80;99.90
51619;DHT22;38518;53.164;5.430;2023-10-09T01:26:39;15.80;99.90
51619;DHT22;38518;53.164;5.430;2023-10-09T01:29:09;15.80;99.90
51619;DHT22;38518;53.164;5.430;2023-10-09T01:31:48;15.80;99.90
51619;DHT22;38518;53.164;5.430;2023-10-09T01:34:30;15.90;99.90
51619;DHT22;38518;53.164;5.430;2023-10-09T01:37:17;15.90;99.90
51619;DHT22;38518;53.164;5.430;2023-10-09T01:39:58;15.80;99.90
51619;DHT22;38518;53.164;5.430;2023-10-09T01:42:47;15.80;99.90
51619;DHT22;38518;53.164;5.430;2023-10-09T01:45:13;15.90;99.90
51619;DHT22;38518;53.164;5.430;2023-10-09T01:47:56;15.90;99.90
51619;DHT22;38518;53.164;5.430;2023-10-09T01:50:22;16.20;99.90
51619;DHT22;38518;53.164;5.430;2023-10-09T01:52:50;15.90;99.90
51619;DHT22;38518;53.164;5.430;2023-10-09T01:55:19;16.00;99.90
51619;DHT22;38518;53.164;5.430;2023-10-09T01:57:59;16.00;99.90
51619;DHT22;38518;53.164;5.430;2023-10-09T02:00:31;16.00;99.90
51619;DHT22;38518;53.164;5.430;2023-10-09T02:03:00;16.00;99.90
51619;DHT22;38518;53.164;5.430;2023-10-09T02:05:30;16.00;99.90
51619;DHT22;38518;53.164;5.430;2023-10-09T02:07:59;16.00;99.90
51619;DHT22;38518;53.164;5.430;2023-10-09T02:10:27;16.10;99.90
51619;DHT22;38518;53.164;5.430;2023-10-09T02:12:55;16.10;99.90
51619;DHT22;38518;53.164;5.430;2023-10-09T02:15:29;16.10;99.90
51619;DHT22;38518;53.164;5.430;2023-10-09T02:18:16;16.20;99.90
51619;DHT22;38518;53.164;5.430;2023-10-09T02:20:51;16.20;99.90
51619;DHT22;38518;53.164;5.430;2023-10-09T02:23:33;16.20;99.90
51619;DHT22;38518;53.164;5.430;2023-10-09T02:26:16;16.20;99.90
51619;DHT22;38518;53.164;5.430;2023-10-09T02:28:49;16.30;99.90
51619;DHT22;38518;53.164;5.430;2023-10-09T02:31:34;16.30;99.90
51619;DHT22;38518;53.164;5.430;2023-10-09T02:34:10;16.30;99.90
51619;DHT22;38518;53.164;5.430;2023-10-09T02:36:39;16.30;99.90
51619;DHT22;38518;53.164;5.430;2023-10-09T02:39:09;16.30;99.90
51619;DHT22;38518;53.164;5.430;2023-10-09T02:41:55;16.30;99.90
51619;DHT22;38518;53.164;5.430;2023-10-09T02:44:27;16.20;99.90
51619;DHT22;38518;53.164;5.430;2023-10-09T02:47:04;16.20;99.90
51619;DHT22;38518;53.164;5.430;2023-10-09T02:49:37;16.20;99.90
51619;DHT22;38518;53.164;5.430;2023-10-09T02:52:06;16.20;99.90
51619;DHT22;38518;53.164;5.430;2023-10-09T02:54:33;16.20;99.90
51619;DHT22;38518;53.164;5.430;2023-10-09T02:57:07;16.20;99.90
51619;DHT22;38518;53.164;5.430;2023-10-09T02:59:34;16.20;99.90
51619;DHT22;38518;53.164;5.430;2023-10-09T03:02:00;16.20;99.90
51619;DHT22;38518;53.164;5.430;2023-10-09T03:04:26;16.20;99.90
51619;DHT22;38518;53.164;5.430;2023-10-09T03:07:00;16.20;99.90
51619;DHT22;38518;53.164;5.430;2023-10-09T03:09:26;16.20;99.90
51619;DHT22;38518;53.164;5.430;2023-10-09T03:11:59;16.20;99.90
51619;DHT22;38518;53.164;5.430;2023-10-09T03:14:28;16.20;99.90
51619;DHT22;38518;53.164;5.430;2023-10-09T03:16:55;16.20;99.90
51619;DHT22;38518;53.164;5.430;2023-10-09T03:19:25;16.20;99.90
51619;DHT22;38518;53.164;5.430;2023-10-09T03:21:52;16.10;99.90
51619;DHT22;38518;53.164;5.430;2023-10-09T03:24:17;16.10;99.90
51619;DHT22;38518;53.164;5.430;2023-10-09T03:26:45;16.20;99.90
51619;DHT22;38518;53.164;5.430;2023-10-09T03:29:11;16.20;99.90
51619;DHT22;38518;53.164;5.430;2023-10-09T03:31:37;16.20;99.90
51619;DHT22;38518;53.164;5.430;2023-10-09T03:34:04;16.20;99.90
51619;DHT22;38518;53.164;5.430;2023-10-09T03:36:30;16.20;99.90
51619;DHT22;38518;53.164;5.430;2023-10-09T03:38:59;16.20;99.90
51619;DHT22;38518;53.164;5.430;2023-10-09T03:41:25;16.20;99.90
51619;DHT22;38518;53.164;5.430;2023-10-09T03:43:54;16.20;99.90
51619;DHT22;38518;53.164;5.430;2023-10-09T03:46:21;16.20;99.90
51619;DHT22;38518;53.164;5.430;2023-10-09T03:48:51;16.20;99.90
51619;DHT22;38518;53.164;5.430;2023-10-09T03:51:18;16.20;99.90
51619;DHT22;38518;53.164;5.430;2023-10-09T03:53:51;16.30;99.90
51619;DHT22;38518;53.164;5.430;2023-10-09T03:56:18;16.30;99.90
51619;DHT22;38518;53.164;5.430;2023-10-09T03:58:51;16.30;99.90
51619;DHT22;38518;53.164;5.430;2023-10-09T04:01:21;16.30;99.90
51619;DHT22;38518;53.164;5.430;2023-10-09T04:03:52;16.30;99.90
51619;DHT22;38518;53.164;5.430;2023-10-09T04:06:22;16.30;99.90
51619;DHT22;38518;53.164;5.430;2023-10-09T04:08:48;16.30;99.90
51619;DHT22;38518;53.164;5.430;2023-10-09T04:11:14;16.30;99.90
51619;DHT22;38518;53.164;5.430;2023-10-09T04:13:46;16.30;99.90
51619;DHT22;38518;53.164;5.430;2023-10-09T04:16:12;16.30;99.90
51619;DHT22;38518;53.164;5.430;2023-10-09T04:18:54;16.30;99.90
51619;DHT22;38518;53.164;5.430;2023-10-09T04:21:26;16.00;99.90
51619;DHT22;38518;53.164;5.430;2023-10-09T04:24:05;16.30;99.90
51619;DHT22;38518;53.164;5.430;2023-10-09T04:26:40;16.30;99.90
51619;DHT22;38518;53.164;5.430;2023-10-09T04:29:14;16.20;99.90
51619;DHT22;38518;53.164;5.430;2023-10-09T04:31:55;16.20;99.90
51619;DHT22;38518;53.164;5.430;2023-10-09T04:34:25;16.20;99.90
51619;DHT22;38518;53.164;5.430;2023-10-09T04:36:57;16.20;99.90
51619;DHT22;38518;53.164;5.430;2023-10-09T04:39:29;16.20;99.90
51619;DHT22;38518;53.164;5.430;2023-10-09T04:41:55;16.20;99.90
51619;DHT22;38518;53.164;5.430;2023-10-09T04:44:43;16.20;99.90
51619;DHT22;38518;53.164;5.430;2023-10-09T04:47:31;16.20;99.90
51619;DHT22;38518;53.164;5.430;2023-10-09T04:50:08;16.20;99.90
51619;DHT22;38518;53.164;5.430;2023-10-09T04:52:40;16.20;99.90
51619;DHT22;38518;53.164;5.430;2023-10-09T04:55:07;16.20;99.90
51619;DHT22;38518;53.164;5.430;2023-10-09T04:57:37;16.20;99.90
51619;DHT22;38518;53.164;5.430;2023-10-09T05:00:10;16.20;99.90
51619;DHT22;38518;53.164;5.430;2023-10-09T05:03:08;16.20;99.90
51619;DHT22;38518;53.164;5.430;2023-10-09T05:05:39;16.20;99.90
51619;DHT22;38518;53.164;5.430;2023-10-09T05:08:17;16.20;99.90
51619;DHT22;38518;53.164;5.430;2023-10-09T05:13:32;16.20;99.90
51619;DHT22;38518;53.164;5.430;2023-10-09T05:16:10;16.20;99.90
51619;DHT22;38518;53.164;5.430;2023-10-09T05:18:41;16.20;99.90
51619;DHT22;38518;53.164;5.430;2023-10-09T05:21:07;16.20;99.90
51619;DHT22;38518;53.164;5.430;2023-10-09T05:24:02;16.20;99.90
51619;DHT22;38518;53.164;5.430;2023-10-09T05:26:48;16.20;99.90
51619;DHT22;38518;53.164;5.430;2023-10-09T05:29:18;16.20;99.90
51619;DHT22;38518;53.164;5.430;2023-10-09T05:31:50;16.20;99.90
51619;DHT22;38518;53.164;5.430;2023-10-09T05:34:21;16.20;99.90
51619;DHT22;38518;53.164;5.430;2023-10-09T05:36:49;16.20;99.90
51619;DHT22;38518;53.164;5.430;2023-10-09T05:39:14;16.20;99.90
51619;DHT22;38518;53.164;5.430;2023-10-09T05:41:47;16.20;99.90
51619;DHT22;38518;53.164;5.430;2023-10-09T05:44:25;16.20;99.90
51619;DHT22;38518;53.164;5.430;2023-10-09T05:47:09;16.20;99.90
51619;DHT22;38518;53.164;5.430;2023-10-09T05:49:54;16.20;99.90
51619;DHT22;38518;53.164;5.430;2023-10-09T05:52:42;16.20;99.90
51619;DHT22;38518;53.164;5.430;2023-10-09T05:55:29;16.20;99.90
51619;DHT22;38518;53.164;5.430;2023-10-09T05:58:13;16.20;99.90
51619;DHT22;38518;53.164;5.430;2023-10-09T06:00:58;16.20;99.90
51619;DHT22;38518;53.164;5.430;2023-10-09T06:03:42;16.20;99.90
51619;DHT22;38518;53.164;5.430;2023-10-09T06:06:17;16.20;99.90
51619;DHT22;38518;53.164;5.430;2023-10-09T06:09:04;16.10;99.90
51619;DHT22;38518;53.164;5.430;2023-10-09T06:11:56;16.20;99.90
51619;DHT22;38518;53.164;5.430;2023-10-09T06:14:41;16.10;99.90
51619;DHT22;38518;53.164;5.430;2023-10-09T06:17:23;16.10;99.90
51619;DHT22;38518;53.164;5.430;2023-10-09T06:19:50;16.20;99.90
51619;DHT22;38518;53.164;5.430;2023-10-09T06:22:24;16.10;99.90
51619;DHT22;38518;53.164;5.430;2023-10-09T06:25:01;16.10;99.90
51619;DHT22;38518;53.164;5.430;2023-10-09T06:27:35;16.10;99.90
51619;DHT22;38518;53.164;5.430;2023-10-09T06:30:00;16.10;99.90
51619;DHT22;38518;53.164;5.430;2023-10-09T06:32:49;16.10;99.90
51619;DHT22;38518;53.164;5.430;2023-10-09T06:35:24;16.10;99.90
51619;DHT22;38518;53.164;5.430;2023-10-09T06:38:12;16.10;99.90
51619;DHT22;38518;53.164;5.430;2023-10-09T06:40:50;16.10;99.90
51619;DHT22;38518;53.164;5.430;2023-10-09T06:43:31;16.10;99.90
51619;DHT22;38518;53.164;5.430;2023-10-09T06:46:15;16.10;99.90
51619;DHT22;38518;53.164;5.430;2023-10-09T06:48:50;16.10;99.90
51619;DHT22;38518;53.164;5.430;2023-10-09T06:51:22;16.10;99.90
51619;DHT22;38518;53.164;5.430;2023-10-09T06:53:51;16.10;99.90
51619;DHT22;38518;53.164;5.430;2023-10-09T06:56:23;16.10;99.90
51619;DHT22;38518;53.164;5.430;2023-10-09T06:59:01;16.10;99.90
51619;DHT22;38518;53.164;5.430;2023-10-09T07:01:40;16.10;99.90
51619;DHT22;38518;53.164;5.430;2023-10-09T07:04:06;16.20;99.90
51619;DHT22;38518;53.164;5.430;2023-10-09T07:06:50;16.20;99.90
51619;DHT22;38518;53.164;5.430;2023-10-09T07:09:22;16.20;99.90
51619;DHT22;38518;53.164;5.430;2023-10-09T07:11:50;16.20;99.90
51619;DHT22;38518;53.164;5.430;2023-10-09T07:14:21;16.20;99.90
51619;DHT22;38518;53.164;5.430;2023-10-09T07:17:08;16.20;99.90
51619;DHT22;38518;53.164;5.430;2023-10-09T07:20:11;16.30;99.90
51619;DHT22;38518;53.164;5.430;2023-10-09T07:22:36;16.30;99.90
51619;DHT22;38518;53.164;5.430;2023-10-09T07:25:05;15.80;99.90
51619;DHT22;38518;53.164;5.430;2023-10-09T07:27:53;16.30;99.90
51619;DHT22;38518;53.164;5.430;2023-10-09T07:30:21;16.30;99.90
51619;DHT22;38518;53.164;5.430;2023-10-09T07:35:34;16.30;99.90
51619;DHT22;38518;53.164;5.430;2023-10-09T07:38:20;16.30;99.90
51619;DHT22;38518;53.164;5.430;2023-10-09T07:40:51;16.40;99.90
51619;DHT22;38518;53.164;5.430;2023-10-09T07:43:28;16.40;99.90
51619;DHT22;38518;53.164;5.430;2023-10-09T07:49:03;16.40;99.90
51619;DHT22;38518;53.164;5.430;2023-10-09T07:51:38;16.40;99.90
51619;DHT22;38518;53.164;5.430;2023-10-09T07:54:09;16.40;99.90
51619;DHT22;38518;53.164;5.430;2023-10-09T07:56:39;16.40;99.90
51619;DHT22;38518;53.164;5.430;2023-10-09T07:59:12;16.50;99.90
51619;DHT22;38518;53.164;5.430;2023-10-09T08:01:44;16.50;99.90
51619;DHT22;38518;53.164;5.430;2023-10-09T08:04:21;16.60;99.90
51619;DHT22;38518;53.164;5.430;2023-10-09T08:07:07;16.60;99.90
51619;DHT22;38518;53.164;5.430;2023-10-09T08:09:47;16.70;99.90
51619;DHT22;38518;53.164;5.430;2023-10-09T08:12:14;16.60;99.90
51619;DHT22;38518;53.164;5.430;2023-10-09T08:14:58;16.60;99.90
51619;DHT22;38518;53.164;5.430;2023-10-09T08:17:44;16.60;99.90
51619;DHT22;38518;53.164;5.430;2023-10-09T08:20:16;16.60;99.90
51619;DHT22;38518;53.164;5.430;2023-10-09T08:22:43;16.60;99.90
51619;DHT22;38518;53.164;5.430;2023-10-09T08:25:12;16.60;99.90
51619;DHT22;38518;53.164;5.430;2023-10-09T08:27:59;16.70;99.90
51619;DHT22;38518;53.164;5.430;2023-10-09T08:30:41;16.70;99.90
51619;DHT22;38518;53.164;5.430;2023-10-09T08:33:15;16.70;99.90
51619;DHT22;38518;53.164;5.430;2023-10-09T08:35:50;16.60;99.90
51619;DHT22;38518;53.164;5.430;2023-10-09T08:38:17;16.70;99.90
51619;DHT22;38518;53.164;5.430;2023-10-09T08:40:50;16.70;99.90
51619;DHT22;38518;53.164;5.430;2023-10-09T08:43:21;16.70;99.90
51619;DHT22;38518;53.164;5.430;2023-10-09T08:45:53;16.70;99.90
51619;DHT22;38518;53.164;5.430;2023-10-09T08:48:20;16.80;99.90
51619;DHT22;38518;53.164;5.430;2023-10-09T08:50:48;16.80;99.90
51619;DHT22;38518;53.164;5.430;2023-10-09T08:53:20;16.80;99.90
51619;DHT22;38518;53.164;5.430;2023-10-09T08:55:47;16.90;99.90
51619;DHT22;38518;53.164;5.430;2023-10-09T08:58:16;16.90;99.90
51619;DHT22;38518;53.164;5.430;2023-10-09T09:01:03;17.00;99.90
51619;DHT22;38518;53.164;5.430;2023-10-09T09:03:41;17.00;99.90
51619;DHT22;38518;53.164;5.430;2023-10-09T09:06:10;17.10;99.90
51619;DHT22;38518;53.164;5.430;2023-10-09T09:08:40;17.10;99.90
51619;DHT22;38518;53.164;5.430;2023-10-09T09:11:11;17.10;99.90
51619;DHT22;38518;53.164;5.430;2023-10-09T09:14:06;17.10;99.90
51619;DHT22;38518;53.164;5.430;2023-10-09T09:16:40;17.10;99.90
51619;DHT22;38518;53.164;5.430;2023-10-09T09:19:10;17.10;99.90
51619;DHT22;38518;53.164;5.430;2023-10-09T09:21:41;17.10;99.90
51619;DHT22;38518;53.164;5.430;2023-10-09T09:24:14;16.90;99.90
51619;DHT22;38518;53.164;5.430;2023-10-09T09:26:56;17.10;99.90
51619;DHT22;38518;53.164;5.430;2023-10-09T09:32:02;17.10;99.90
51619;DHT22;38518;53.164;5.430;2023-10-09T09:34:45;17.10;99.90
51619;DHT22;38518;53.164;5.430;2023-10-09T09:37:26;17.10;99.90
51619;DHT22;38518;53.164;5.430;2023-10-09T09:39:59;17.10;99.90
51619;DHT22;38518;53.164;5.430;2023-10-09T09:42:28;17.10;99.90
51619;DHT22;38518;53.164;5.430;2023-10-09T09:44:59;17.10;99.90
51619;DHT22;38518;53.164;5.430;2023-10-09T09:47:26;17.10;99.90
51619;DHT22;38518;53.164;5.430;2023-10-09T09:49:53;17.10;99.90
51619;DHT22;38518;53.164;5.430;2023-10-09T09:52:34;17.10;99.90
51619;DHT22;38518;53.164;5.430;2023-10-09T09:55:10;17.10;99.90
51619;DHT22;38518;53.164;5.430;2023-10-09T09:57:48;17.00;99.90
51619;DHT22;38518;53.164;5.430;2023-10-09T10:00:20;17.10;99.90
51619;DHT22;38518;53.164;5.430;2023-10-09T10:03:01;17.10;99.90
51619;DHT22;38518;53.164;5.430;2023-10-09T10:05:31;17.10;99.90
51619;DHT22;38518;53.164;5.430;2023-10-09T10:08:01;17.10;99.90
51619;DHT22;38518;53.164;5.430;2023-10-09T10:10:35;17.10;99.90
51619;DHT22;38518;53.164;5.430;2023-10-09T10:13:03;17.10;99.90
51619;DHT22;38518;53.164;5.430;2023-10-09T10:18:57;17.10;99.90
51619;DHT22;38518;53.164;5.430;2023-10-09T10:21:33;17.10;99.90
51619;DHT22;38518;53.164;5.430;2023-10-09T10:29:44;17.30;99.90
51619;DHT22;38518;53.164;5.430;2023-10-09T10:32:11;17.40;99.90
51619;DHT22;38518;53.164;5.430;2023-10-09T10:37:37;17.40;99.90
51619;DHT22;38518;53.164;5.430;2023-10-09T10:40:09;17.60;99.90
51619;DHT22;38518;53.164;5.430;2023-10-09T10:43:00;17.80;99.90
51619;DHT22;38518;53.164;5.430;2023-10-09T10:45:36;18.00;99.90
51619;DHT22;38518;53.164;5.430;2023-10-09T10:48:09;18.20;99.90
51619;DHT22;38518;53.164;5.430;2023-10-09T10:50:57;18.30;99.90
51619;DHT22;38518;53.164;5.430;2023-10-09T10:53:23;18.40;99.90
51619;DHT22;38518;53.164;5.430;2023-10-09T10:55:57;18.50;99.90
51619;DHT22;38518;53.164;5.430;2023-10-09T10:58:23;18.90;99.90
51619;DHT22;38518;53.164;5.430;2023-10-09T11:00:55;19.60;99.90
51619;DHT22;38518;53.164;5.430;2023-10-09T11:03:25;20.30;99.30
51619;DHT22;38518;53.164;5.430;2023-10-09T11:06:10;21.00;69.40
51619;DHT22;38518;53.164;5.430;2023-10-09T11:08:47;22.00;34.20
51619;DHT22;38518;53.164;5.430;2023-10-09T11:11:20;22.40;1.00
51619;DHT22;38518;53.164;5.430;2023-10-09T11:13:47;22.30;1.00
51619;DHT22;38518;53.164;5.430;2023-10-09T11:16:19;22.30;1.00
51619;DHT22;38518;53.164;5.430;2023-10-09T11:19:14;22.00;1.00
51619;DHT22;38518;53.164;5.430;2023-10-09T11:21:53;21.60;1.00
51619;DHT22;38518;53.164;5.430;2023-10-09T11:24:31;21.20;1.00
51619;DHT22;38518;53.164;5.430;2023-10-09T11:27:05;20.80;1.00
51619;DHT22;38518;53.164;5.430;2023-10-09T11:29:36;20.40;1.00
51619;DHT22;38518;53.164;5.430;2023-10-09T11:32:18;20.20;1.00
51619;DHT22;38518;53.164;5.430;2023-10-09T11:34:46;20.00;1.00
51619;DHT22;38518;53.164;5.430;2023-10-09T11:37:22;19.80;1.00
51619;DHT22;38518;53.164;5.430;2023-10-09T11:40:30;19.50;1.00
51619;DHT22;38518;53.164;5.430;2023-10-09T11:43:20;19.20;1.00
51619;DHT22;38518;53.164;5.430;2023-10-09T11:46:11;19.20;1.00
51619;DHT22;38518;53.164;5.430;2023-10-09T11:48:37;19.10;1.00
51619;DHT22;38518;53.164;5.430;2023-10-09T11:51:32;19.10;1.00
51619;DHT22;38518;53.164;5.430;2023-10-09T11:53:57;19.00;1.00
51619;DHT22;38518;53.164;5.430;2023-10-09T11:56:24;19.00;1.00
51619;DHT22;38518;53.164;5.430;2023-10-09T11:58:52;18.90;1.00
51619;DHT22;38518;53.164;5.430;2023-10-09T12:01:19;19.00;2.30
51619;DHT22;38518;53.164;5.430;2023-10-09T12:03:51;19.00;5.50
51619;DHT22;38518;53.164;5.430;2023-10-09T12:06:20;19.10;8.30
51619;DHT22;38518;53.164;5.430;2023-10-09T12:08:49;19.20;9.70
51619;DHT22;38518;53.164;5.430;2023-10-09T12:11:15;19.30;11.30
51619;DHT22;38518;53.164;5.430;2023-10-09T12:13:51;19.50;10.40
51619;DHT22;38518;53.164;5.430;2023-10-09T12:16:22;19.60;10.60
51619;DHT22;38518;53.164;5.430;2023-10-09T12:18:54;19.70;6.70
51619;DHT22;38518;53.164;5.430;2023-10-09T12:21:20;19.60;1.00
51619;DHT22;38518;53.164;5.430;2023-10-09T12:23:46;19.40;1.00
51619;DHT22;38518;53.164;5.430;2023-10-09T12:26:13;19.40;1.00
51619;DHT22;38518;53.164;5.430;2023-10-09T12:28:43;19.30;1.00
51619;DHT22;38518;53.164;5.430;2023-10-09T12:31:12;19.20;1.00
51619;DHT22;38518;53.164;5.430;2023-10-09T12:33:41;19.20;1.00
51619;DHT22;38518;53.164;5.430;2023-10-09T12:36:11;19.40;1.00
51619;DHT22;38518;53.164;5.430;2023-10-09T12:38:43;19.00;1.00
51619;DHT22;38518;53.164;5.430;2023-10-09T12:41:11;18.90;1.00
51619;DHT22;38518;53.164;5.430;2023-10-09T12:43:51;18.80;1.80
51619;DHT22;38518;53.164;5.430;2023-10-09T12:46:18;18.70;5.70
51619;DHT22;38518;53.164;5.430;2023-10-09T12:48:54;18.60;9.70
51619;DHT22;38518;53.164;5.430;2023-10-09T12:51:21;18.70;13.10
51619;DHT22;38518;53.164;5.430;2023-10-09T12:53:51;18.70;16.20
51619;DHT22;38518;53.164;5.430;2023-10-09T12:56:26;18.70;17.20
51619;DHT22;38518;53.164;5.430;2023-10-09T12:59:17;18.70;17.50
51619;DHT22;38518;53.164;5.430;2023-10-09T13:01:45;18.70;20.60
51619;DHT22;38518;53.164;5.430;2023-10-09T13:04:15;18.80;22.80
51619;DHT22;38518;53.164;5.430;2023-10-09T13:06:42;18.80;20.30
51619;DHT22;38518;53.164;5.430;2023-10-09T13:09:12;18.80;20.00
51619;DHT22;38518;53.164;5.430;2023-10-09T13:11:39;18.80;18.60
51619;DHT22;38518;53.164;5.430;2023-10-09T13:14:09;18.80;18.00
51619;DHT22;38518;53.164;5.430;2023-10-09T13:16:45;18.70;21.10
51619;DHT22;38518;53.164;5.430;2023-10-09T13:19:12;19.00;20.90
51619;DHT22;38518;53.164;5.430;2023-10-09T13:21:38;19.00;16.70
51619;DHT22;38518;53.164;5.430;2023-10-09T13:24:06;18.90;13.40
51619;DHT22;38518;53.164;5.430;2023-10-09T13:26:39;18.80;7.70
51619;DHT22;38518;53.164;5.430;2023-10-09T13:29:07;18.70;10.40
51619;DHT22;38518;53.164;5.430;2023-10-09T13:31:37;18.70;10.50
51619;DHT22;38518;53.164;5.430;2023-10-09T13:34:06;18.70;10.20
51619;DHT22;38518;53.164;5.430;2023-10-09T13:36:35;18.70;13.60
51619;DHT22;38518;53.164;5.430;2023-10-09T13:39:08;18.70;12.10
51619;DHT22;38518;53.164;5.430;2023-10-09T13:41:56;18.60;14.70
51619;DHT22;38518;53.164;5.430;2023-10-09T13:44:28;18.70;17.20
51619;DHT22;38518;53.164;5.430;2023-10-09T13:46:58;18.70;15.70
51619;DHT22;38518;53.164;5.430;2023-10-09T13:49:24;18.70;11.50
51619;DHT22;38518;53.164;5.430;2023-10-09T13:51:56;18.70;11.40
51619;DHT22;38518;53.164;5.430;2023-10-09T13:54:26;18.70;10.60
51619;DHT22;38518;53.164;5.430;2023-10-09T13:57:02;18.70;9.50
51619;DHT22;38518;53.164;5.430;2023-10-09T13:59:35;18.60;4.70
51619;DHT22;38518;53.164;5.430;2023-10-09T14:02:02;18.60;4.40
51619;DHT22;38518;53.164;5.430;2023-10-09T14:06:34;18.40;1.80
51619;DHT22;38518;53.164;5.430;2023-10-09T14:09:04;18.40;9.20
51619;DHT22;38518;53.164;5.430;2023-10-09T14:11:31;18.40;8.30
51619;DHT22;38518;53.164;5.430;2023-10-09T14:13:57;18.30;9.30
51619;DHT22;38518;53.164;5.430;2023-10-09T14:16:27;18.30;11.30
51619;DHT22;38518;53.164;5.430;2023-10-09T14:18:54;18.30;13.10
51619;DHT22;38518;53.164;5.430;2023-10-09T14:21:24;18.20;14.00
51619;DHT22;38518;53.164;5.430;2023-10-09T14:23:52;18.20;15.60
51619;DHT22;38518;53.164;5.430;2023-10-09T14:26:24;18.10;16.20
51619;DHT22;38518;53.164;5.430;2023-10-09T14:28:51;17.60;14.70
51619;DHT22;38518;53.164;5.430;2023-10-09T14:31:18;18.10;15.30
51619;DHT22;38518;53.164;5.430;2023-10-09T14:33:55;18.00;14.70
51619;DHT22;38518;53.164;5.430;2023-10-09T14:36:22;18.00;12.90
51619;DHT22;38518;53.164;5.430;2023-10-09T14:38:51;17.90;12.90
51619;DHT22;38518;53.164;5.430;2023-10-09T14:41:22;17.90;14.00
51619;DHT22;38518;53.164;5.430;2023-10-09T14:43:51;17.80;12.40
51619;DHT22;38518;53.164;5.430;2023-10-09T14:46:18;17.70;11.00
51619;DHT22;38518;53.164;5.430;2023-10-09T14:48:55;17.60;10.60
51619;DHT22;38518;53.164;5.430;2023-10-09T14:51:22;17.60;10.20
51619;DHT22;38518;53.164;5.430;2023-10-09T14:53:58;17.60;11.40
51619;DHT22;38518;53.164;5.430;2023-10-09T14:56:25;17.50;11.10
51619;DHT22;38518;53.164;5.430;2023-10-09T14:58:59;17.40;10.30
51619;DHT22;38518;53.164;5.430;2023-10-09T15:01:29;17.40;14.20
51619;DHT22;38518;53.164;5.430;2023-10-09T15:03:57;17.40;18.20
51619;DHT22;38518;53.164;5.430;2023-10-09T15:06:25;17.40;18.70
51619;DHT22;38518;53.164;5.430;2023-10-09T15:08:53;17.40;18.60
51619;DHT22;38518;53.164;5.430;2023-10-09T15:11:22;17.40;16.70
51619;DHT22;38518;53.164;5.430;2023-10-09T15:13:49;17.40;18.80
51619;DHT22;38518;53.164;5.430;2023-10-09T15:16:15;17.40;16.70
51619;DHT22;38518;53.164;5.430;2023-10-09T15:18:41;17.40;14.00
51619;DHT22;38518;53.164;5.430;2023-10-09T15:21:06;17.40;14.30
51619;DHT22;38518;53.164;5.430;2023-10-09T15:23:34;17.40;15.70
51619;DHT22;38518;53.164;5.430;2023-10-09T15:26:02;17.30;17.40
51619;DHT22;38518;53.164;5.430;2023-10-09T15:28:28;17.30;15.00
51619;DHT22;38518;53.164;5.430;2023-10-09T15:30:58;17.40;17.10
51619;DHT22;38518;53.164;5.430;2023-10-09T15:33:25;17.40;16.70
51619;DHT22;38518;53.164;5.430;2023-10-09T15:35:56;17.30;12.50
51619;DHT22;38518;53.164;5.430;2023-10-09T15:38:22;17.30;10.40
51619;DHT22;38518;53.164;5.430;2023-10-09T15:40:50;17.20;10.20
51619;DHT22;38518;53.164;5.430;2023-10-09T15:43:16;17.20;12.20
51619;DHT22;38518;53.164;5.430;2023-10-09T15:45:45;17.20;12.80
51619;DHT22;38518;53.164;5.430;2023-10-09T15:48:14;17.20;13.70
51619;DHT22;38518;53.164;5.430;2023-10-09T15:50:45;17.20;14.60
51619;DHT22;38518;53.164;5.430;2023-10-09T15:53:15;17.20;10.50
51619;DHT22;38518;53.164;5.430;2023-10-09T15:55:44;17.10;10.60
51619;DHT22;38518;53.164;5.430;2023-10-09T15:58:12;17.10;8.50
51619;DHT22;38518;53.164;5.430;2023-10-09T16:00:38;17.00;10.10
51619;DHT22;38518;53.164;5.430;2023-10-09T16:03:05;17.00;9.80
51619;DHT22;38518;53.164;5.430;2023-10-09T16:05:35;17.00;11.40
51619;DHT22;38518;53.164;5.430;2023-10-09T16:08:02;17.00;13.40
51619;DHT22;38518;53.164;5.430;2023-10-09T16:10:29;17.00;15.00
51619;DHT22;38518;53.164;5.430;2023-10-09T16:12:56;17.00;15.60
51619;DHT22;38518;53.164;5.430;2023-10-09T16:15:23;17.00;16.50
51619;DHT22;38518;53.164;5.430;2023-10-09T16:17:50;16.90;16.90
51619;DHT22;38518;53.164;5.430;2023-10-09T16:20:27;16.90;18.30
51619;DHT22;38518;53.164;5.430;2023-10-09T16:22:53;16.90;19.60
51619;DHT22;38518;53.164;5.430;2023-10-09T16:25:21;16.80;20.90
51619;DHT22;38518;53.164;5.430;2023-10-09T16:27:49;16.80;23.30
51619;DHT22;38518;53.164;5.430;2023-10-09T16:30:17;15.90;24.00
51619;DHT22;38518;53.164;5.430;2023-10-09T16:32:47;16.70;25.10